»·PEaware :: N350KT KPVU-KBOI

N350KT :: KPVU-KBOI

FLIGHT INFORMATION

Flight Status: Arrived
Operator: Privately registered:
United States
More flights under this callsign
Pilot: Aundrey S. (17120)
Aircraft: ECLIPSE 500
(EA50)
More flights by this aircraft type
Origin: KPVU Provo Mun
United States
Destination: KBOI Boise Air Terminal/Gowen
United States
More flights between these airports :: More routes between these airports
Route: PROVO4 TCH J15 TWF BROPH SPUUD3
File this flight plan on PilotEdge
Remarks:
Altitude:
(Current/Filed)
28,000ft
Speed:
(Current/Filed)
400kts
Departed: 01-Jul-18 03:32 PM
Arrived: 01-Jul-18 04:42 PM
Distance/Time
Traveled:
284nm/1:09
Distance/Time
To Go:
Arrived

Flight Plot

Page will automatically refresh every two minutes.

Flight plan parsing failed; only flown route is shown


Map Options




Map Legend


Flown Route
Filed Route
Departure Airport
Arrival Airport
Navaid (VOR, NDB)
Fix

Horizontal Profiles

Position Reports

Time Latitude Longitude Heading Altitude Ground
Speed
01-Jul-18 15:05 40.218149 -111.718567 54 4494ft 0kts
01-Jul-18 15:06 40.218149 -111.718567 54 4494ft 0kts
01-Jul-18 15:07 40.218149 -111.718567 54 4494ft 0kts
01-Jul-18 15:08 40.218149 -111.718567 54 4494ft 0kts
01-Jul-18 15:09 40.218149 -111.718567 54 4494ft 0kts
01-Jul-18 15:10 40.218149 -111.718567 54 4494ft 0kts
01-Jul-18 15:11 40.218149 -111.718567 54 4494ft 0kts
01-Jul-18 15:12 40.218149 -111.718567 54 4494ft 0kts
01-Jul-18 15:13 40.218149 -111.718567 54 4494ft 0kts
01-Jul-18 15:14 40.218149 -111.718567 54 4494ft 0kts
01-Jul-18 15:15 40.218149 -111.718567 54 4494ft 0kts
01-Jul-18 15:16 40.218149 -111.718567 54 4494ft 0kts
01-Jul-18 15:17 40.218149 -111.718567 54 4494ft 0kts
01-Jul-18 15:18 40.218149 -111.718567 54 4494ft 0kts
01-Jul-18 15:19 40.218149 -111.718567 54 4494ft 0kts
01-Jul-18 15:20 40.218149 -111.718567 54 4494ft 0kts
01-Jul-18 15:22 40.218149 -111.718567 54 4494ft 0kts
01-Jul-18 15:23 40.218149 -111.718567 54 4494ft 0kts
01-Jul-18 15:24 40.218149 -111.718567 54 4494ft 0kts
01-Jul-18 15:25 40.218149 -111.718567 54 4494ft 0kts
01-Jul-18 15:26 40.218149 -111.718567 54 4494ft 0kts
01-Jul-18 15:27 40.218149 -111.718567 54 4494ft 0kts
01-Jul-18 15:28 40.218149 -111.718567 54 4494ft 0kts
01-Jul-18 15:29 40.218530 -111.719946 325 4494ft 8kts
01-Jul-18 15:30 40.221013 -111.720035 10 4494ft 10kts
01-Jul-18 15:31 40.224881 -111.719161 327 4494ft 7kts
01-Jul-18 15:32 40.225539 -111.719736 327 4494ft 4kts
01-Jul-18 15:33 40.218446 -111.722558 191 4495ft 108kts
01-Jul-18 15:34 40.195559 -111.759064 254 6496ft 157kts
01-Jul-18 15:35 40.180442 -111.813530 248 8924ft 165kts
01-Jul-18 15:36 40.161479 -111.868875 245 11210ft 171kts
01-Jul-18 15:37 40.148880 -111.926337 308 12915ft 173kts
01-Jul-18 15:38 40.190777 -111.935845 351 14458ft 155kts
01-Jul-18 15:39 40.235000 -111.938187 351 16080ft 164kts
01-Jul-18 15:40 40.281690 -111.940526 349 17652ft 174kts
01-Jul-18 15:41 40.331371 -111.944359 350 19175ft 183kts
01-Jul-18 15:42 40.382754 -111.948168 350 20684ft 187kts
01-Jul-18 15:43 40.435142 -111.951961 351 22086ft 192kts
01-Jul-18 15:44 40.488533 -111.955822 351 23489ft 194kts
01-Jul-18 15:45 40.542055 -111.959641 351 24876ft 191kts
01-Jul-18 15:46 40.593831 -111.963338 351 26262ft 181kts
01-Jul-18 15:47 40.641385 -111.966731 350 27506ft 167kts
01-Jul-18 15:48 40.691486 -111.970441 351 28046ft 195kts
01-Jul-18 15:49 40.752120 -111.974907 352 28138ft 246kts
01-Jul-18 15:50 40.827127 -111.980352 351 28131ft 291kts
01-Jul-18 15:51 40.891122 -112.046955 312 28134ft 313kts
01-Jul-18 15:52 40.952430 -112.134275 311 28130ft 335kts
01-Jul-18 15:53 41.014635 -112.225782 310 28151ft 337kts
01-Jul-18 15:54 41.076773 -112.318163 310 28154ft 337kts
01-Jul-18 15:54 41.127381 -112.393744 310 28154ft 336kts
01-Jul-18 15:55 41.189437 -112.486728 310 28155ft 337kts
01-Jul-18 15:57 41.261592 -112.595214 310 28125ft 337kts
01-Jul-18 15:58 41.323133 -112.688084 310 28132ft 337kts
01-Jul-18 15:59 41.384921 -112.781595 310 28131ft 337kts
01-Jul-18 16:00 41.446417 -112.874964 310 28129ft 337kts
01-Jul-18 16:00 41.497840 -112.953261 310 28131ft 337kts
01-Jul-18 16:01 41.559379 -113.047228 310 28155ft 335kts
01-Jul-18 16:02 41.620245 -113.140465 310 28153ft 334kts
01-Jul-18 16:03 41.681492 -113.234572 310 28153ft 336kts
01-Jul-18 16:04 41.742335 -113.328360 310 28155ft 334kts
01-Jul-18 16:05 41.803052 -113.422250 310 28153ft 334kts
01-Jul-18 16:06 41.863792 -113.516477 310 28100ft 337kts
01-Jul-18 16:07 41.924998 -113.611722 310 28098ft 337kts
01-Jul-18 16:08 41.985213 -113.705676 309 28102ft 328kts
01-Jul-18 16:09 42.045030 -113.799379 309 28101ft 330kts
01-Jul-18 16:10 42.103131 -113.890661 309 28101ft 330kts
01-Jul-18 16:11 42.162553 -113.984303 309 28103ft 329kts
01-Jul-18 16:12 42.221960 -114.078217 309 28102ft 329kts
01-Jul-18 16:13 42.281070 -114.171955 309 28105ft 328kts
01-Jul-18 16:14 42.339859 -114.265473 309 28128ft 327kts
01-Jul-18 16:15 42.398683 -114.359358 309 28127ft 327kts
01-Jul-18 16:16 42.456944 -114.452636 309 26738ft 315kts
01-Jul-18 16:17 42.513551 -114.543002 309 25117ft 312kts
01-Jul-18 16:18 42.568823 -114.631197 309 23499ft 304kts
01-Jul-18 16:19 42.622127 -114.716466 308 21913ft 295kts
01-Jul-18 16:20 42.674544 -114.800575 308 20306ft 288kts
01-Jul-18 16:21 42.726318 -114.882465 310 18708ft 289kts
01-Jul-18 16:22 42.783642 -114.965001 310 17119ft 303kts
01-Jul-18 16:23 42.840783 -115.047207 310 16022ft 294kts
01-Jul-18 16:24 42.897888 -115.129547 310 16020ft 301kts
01-Jul-18 16:25 42.955064 -115.212351 310 16018ft 299kts
01-Jul-18 16:26 43.010935 -115.296493 300 16014ft 297kts
01-Jul-18 16:27 43.056608 -115.390355 302 15006ft 296kts
01-Jul-18 16:28 43.102189 -115.481640 302 13902ft 293kts
01-Jul-18 16:29 43.147859 -115.573020 302 12797ft 291kts
01-Jul-18 16:30 43.192966 -115.663617 302 11689ft 288kts
01-Jul-18 16:31 43.237232 -115.753132 304 10599ft 283kts
01-Jul-18 16:32 43.281077 -115.841500 305 9495ft 276kts
01-Jul-18 16:33 43.322334 -115.924999 305 8556ft 262kts
01-Jul-18 16:34 43.362790 -116.007165 305 7954ft 259kts
01-Jul-18 16:35 43.402351 -116.087797 305 7447ft 235kts
01-Jul-18 16:36 43.438595 -116.161834 305 7002ft 232kts
01-Jul-18 16:37 43.474811 -116.236008 305 6993ft 233kts
01-Jul-18 16:38 43.506090 -116.314215 297 6991ft 233kts
01-Jul-18 16:39 43.556327 -116.357963 0 6063ft 208kts
01-Jul-18 16:40 43.585490 -116.308530 66 4880ft 171kts
01-Jul-18 16:41 43.572478 -116.250103 112 3027ft 149kts
01-Jul-18 16:42 43.563824 -116.224989 163 2844ft 3kts
01-Jul-18 16:43 43.563469 -116.225027 204 2844ft 0kts
01-Jul-18 16:44 43.563627 -116.227589 295 2839ft 13kts
01-Jul-18 16:45 43.564180 -116.231153 197 2834ft 7kts
01-Jul-18 16:46 43.563879 -116.230133 28 2835ft 0kts
01-Jul-18 16:47 43.563879 -116.230133 28 2835ft 0kts

Navigation Log

Ident Type
Flight plan parsing failed, navigation log unavailable